Time;durP1;ratioP1;P1;durP2;ratioP2;P2;SDS_P1;SDS_P2;PMS_P1;PMS_P2;Temp;Humidity;BMP_temperature;BMP_pressure;BME280_temperature;BME280_humidity;BME280_pressure;Samples;Min_cycle;Max_cycle;Signal;HPM_P1;HPM_P2
2022/04/27 00:00:05;;;;;;;5.25;2.22;;;9.70;84.60;;;;;;5080260;28;20049;-67
2022/04/27 00:02:40;;;;;;;4.80;2.70;;;9.60;84.60;;;;;;5083918;28;20051;-67
2022/04/27 00:05:08;;;;;;;5.15;2.33;;;9.50;84.60;;;;;;5074558;28;20531;-67
2022/04/27 00:07:35;;;;;;;6.63;2.58;;;9.60;84.70;;;;;;5086283;28;20052;-67
2022/04/27 00:10:02;;;;;;;6.63;3.08;;;9.50;84.80;;;;;;5066909;28;20334;-66
2022/04/27 00:12:29;;;;;;;6.40;3.03;;;9.60;84.70;;;;;;5071449;28;20043;-67
2022/04/27 00:14:56;;;;;;;5.18;2.63;;;9.60;84.70;;;;;;5080181;28;20055;-67
2022/04/27 00:17:23;;;;;;;7.65;3.25;;;9.60;84.90;;;;;;5077769;28;20051;-67
2022/04/27 00:19:51;;;;;;;8.48;3.10;;;9.60;84.90;;;;;;5077360;28;20066;-66
2022/04/27 00:22:18;;;;;;;11.98;3.15;;;9.60;84.90;;;;;;5078159;28;20466;-67
2022/04/27 00:24:45;;;;;;;7.75;3.35;;;9.70;84.90;;;;;;5065255;28;20044;-64
2022/04/27 00:27:12;;;;;;;8.13;3.45;;;9.60;84.90;;;;;;5071545;28;20054;-64
2022/04/27 00:29:39;;;;;;;6.78;3.15;;;9.70;84.90;;;;;;5081977;28;20500;-68
2022/04/27 00:32:07;;;;;;;6.38;3.30;;;9.70;85.00;;;;;;5059923;28;20036;-67
2022/04/27 00:34:34;;;;;;;7.40;3.63;;;9.70;85.10;;;;;;5074321;28;20159;-65
2022/04/27 00:37:02;;;;;;;7.68;3.63;;;9.70;85.00;;;;;;5073153;28;20520;-66
2022/04/27 00:39:29;;;;;;;9.40;3.80;;;9.70;85.20;;;;;;5070036;28;20059;-69
2022/04/27 00:42:02;;;;;;;8.50;4.03;;;9.60;85.30;;;;;;5057339;28;20060;-67
2022/04/27 00:44:31;;;;;;;8.15;3.90;;;9.60;85.40;;;;;;5067585;28;20063;-66
2022/04/27 00:46:58;;;;;;;9.88;4.70;;;9.70;85.40;;;;;;5065177;28;20040;-67
2022/04/27 00:49:26;;;;;;;9.60;5.38;;;9.70;85.40;;;;;;5066307;28;20037;-67
2022/04/27 00:51:54;;;;;;;11.18;5.20;;;9.60;85.50;;;;;;5068139;28;20040;-66
2022/04/27 00:54:23;;;;;;;10.05;5.50;;;9.60;85.60;;;;;;5056565;28;20107;-67
2022/04/27 00:56:51;;;;;;;12.02;5.30;;;9.60;85.70;;;;;;5071552;28;20039;-67
2022/04/27 00:59:19;;;;;;;11.38;5.43;;;9.60;85.80;;;;;;5071937;28;20047;-68
2022/04/27 01:01:46;;;;;;;12.10;6.03;;;9.70;85.60;;;;;;5043330;28;20052;-66
2022/04/27 01:04:13;;;;;;;8.85;5.03;;;9.60;85.60;;;;;;5055551;28;20131;-67
2022/04/27 01:06:41;;;;;;;12.10;5.60;;;9.60;85.70;;;;;;5059282;28;20072;-67
2022/04/27 01:09:08;;;;;;;10.40;5.70;;;9.60;85.70;;;;;;5073764;28;20041;-67
2022/04/27 01:11:36;;;;;;;9.70;4.82;;;9.60;85.70;;;;;;5065084;28;20052;-66
2022/04/27 01:14:04;;;;;;;10.53;4.93;;;9.60;85.60;;;;;;5075165;28;20109;-68
2022/04/27 01:16:31;;;;;;;13.55;5.60;;;9.60;85.70;;;;;;5077248;28;20043;-66
2022/04/27 01:18:58;;;;;;;13.98;5.22;;;9.60;85.80;;;;;;5065997;28;20048;-66
2022/04/27 01:21:27;;;;;;;12.95;5.85;;;9.60;85.80;;;;;;5041991;28;20052;-67
2022/04/27 01:24:05;;;;;;;9.50;4.65;;;9.60;85.80;;;;;;5049057;28;20050;-66
2022/04/27 01:26:33;;;;;;;10.90;5.47;;;9.60;85.70;;;;;;5050998;28;20137;-67
2022/04/27 01:29:00;;;;;;;11.98;6.15;;;9.60;85.80;;;;;;5069585;28;20047;-65
2022/04/27 01:31:27;;;;;;;10.05;4.97;;;9.60;85.70;;;;;;5055184;28;20136;-65
2022/04/27 01:33:55;;;;;;;9.20;4.88;;;9.60;85.60;;;;;;5071232;28;20114;-67
2022/04/27 01:36:22;;;;;;;11.60;5.13;;;9.60;85.50;;;;;;5072603;28;20127;-68
2022/04/27 01:38:50;;;;;;;9.50;4.75;;;9.60;85.40;;;;;;5056987;28;20080;-66
2022/04/27 01:41:17;;;;;;;10.85;4.85;;;9.60;85.30;;;;;;5075429;28;20118;-67
2022/04/27 01:43:44;;;;;;;10.85;4.43;;;9.60;85.40;;;;;;5065609;28;20044;-67
2022/04/27 01:46:11;;;;;;;9.70;5.20;;;9.60;85.20;;;;;;5062733;28;20048;-68
2022/04/27 01:48:39;;;;;;;9.93;4.68;;;9.60;85.10;;;;;;5069014;28;20040;-68
2022/04/27 01:51:06;;;;;;;10.13;4.30;;;9.60;85.00;;;;;;5045524;28;20994;-66
2022/04/27 01:56:20;;;;;;;10.52;4.85;;;9.60;84.80;;;;;;5050549;28;20044;-67
2022/04/27 01:58:51;;;;;;;7.97;4.18;;;9.60;84.80;;;;;;5051467;28;20097;-67
2022/04/27 02:01:18;;;;;;;7.85;4.05;;;9.50;84.90;;;;;;5035990;28;20068;-67
2022/04/27 02:03:46;;;;;;;11.52;5.28;;;9.50;85.00;;;;;;5058028;28;20098;-68
2022/04/27 02:06:19;;;;;;;11.23;5.47;;;9.40;85.10;;;;;;5065039;28;20144;-66
2022/04/27 02:08:46;;;;;;;;;;;9.40;85.10;;;;;;5056187;28;20056;-67
2022/04/27 02:11:15;;;;;;;8.30;4.03;;;9.40;85.00;;;;;;5054219;28;19920;-68
2022/04/27 02:13:55;;;;;;;8.05;4.18;;;9.40;85.00;;;;;;5051623;28;20048;-68
2022/04/27 02:16:24;;;;;;;9.25;4.30;;;9.40;84.80;;;;;;5056131;28;20741;-67
2022/04/27 02:18:52;;;;;;;9.15;4.70;;;9.40;84.60;;;;;;5075659;28;20051;-65
2022/04/27 02:21:21;;;;;;;8.85;4.88;;;9.40;84.70;;;;;;5073553;28;20036;-68
2022/04/27 02:23:49;;;;;;;8.82;4.10;;;9.30;84.60;;;;;;5072157;28;20084;-68
2022/04/27 02:26:17;;;;;;;11.10;4.90;;;9.30;84.50;;;;;;5075677;28;20127;-67
2022/04/27 02:28:44;;;;;;;9.85;4.55;;;9.30;84.50;;;;;;5070955;28;20057;-66
2022/04/27 02:31:13;;;;;;;11.25;4.93;;;9.30;84.40;;;;;;5050421;28;20049;-65
2022/04/27 02:33:40;;;;;;;7.63;4.38;;;9.20;84.50;;;;;;5074171;28;20075;-67
2022/04/27 02:36:07;;;;;;;12.40;4.90;;;9.30;84.50;;;;;;5076803;28;20120;-67
2022/04/27 02:38:35;;;;;;;10.95;4.95;;;9.20;84.50;;;;;;5044875;28;20073;-67
2022/04/27 02:41:05;;;;;;;10.80;4.63;;;9.20;84.50;;;;;;5057273;28;20750;-67
2022/04/27 02:43:32;;;;;;;11.27;4.95;;;9.20;84.60;;;;;;5056586;28;20103;-68
2022/04/27 02:46:00;;;;;;;8.88;4.55;;;9.20;84.60;;;;;;5056980;28;20048;-67
2022/04/27 02:48:28;;;;;;;10.65;5.25;;;9.10;84.70;;;;;;5079178;28;20398;-67
2022/04/27 02:53:40;;;;;;;10.63;5.63;;;9.10;84.80;;;;;;5079554;28;20098;-66
2022/04/27 02:56:07;;;;;;;11.57;5.13;;;9.10;85.00;;;;;;5062786;28;21600;-67
2022/04/27 02:58:34;;;;;;;12.43;5.03;;;9.10;84.90;;;;;;5051208;28;20068;-67
2022/04/27 03:01:01;;;;;;;11.38;4.82;;;9.10;84.90;;;;;;5064309;28;20041;-67
2022/04/27 03:03:29;;;;;;;10.73;4.90;;;9.10;84.90;;;;;;5066513;28;20065;-67
2022/04/27 03:05:58;;;;;;;10.63;5.07;;;9.10;84.90;;;;;;5067550;28;22575;-68
2022/04/27 03:08:27;;;;;;;10.50;4.32;;;9.10;84.80;;;;;;5058301;28;20564;-68
2022/04/27 03:10:55;;;;;;;9.85;4.72;;;9.10;84.60;;;;;;5047694;28;20140;-67
2022/04/27 03:13:28;;;;;;;8.95;4.03;;;9.10;84.30;;;;;;5080401;28;20048;-68
2022/04/27 03:16:08;;;;;;;8.60;4.40;;;9.10;84.10;;;;;;5057664;28;20044;-66
2022/04/27 03:18:36;;;;;;;8.32;3.97;;;9.10;84.00;;;;;;5063438;28;20075;-66
2022/04/27 03:21:03;;;;;;;7.13;3.28;;;9.10;83.90;;;;;;5080286;28;20053;-67
2022/04/27 03:23:30;;;;;;;9.90;4.38;;;9.10;83.80;;;;;;5059217;28;20048;-67
2022/04/27 03:25:58;;;;;;;10.88;4.10;;;8.90;83.80;;;;;;5047264;28;20681;-67
2022/04/27 03:28:26;;;;;;;6.88;3.90;;;8.90;84.00;;;;;;5076165;28;20044;-67
2022/04/27 03:30:54;;;;;;;8.90;4.28;;;8.80;84.20;;;;;;5081913;28;20059;-67
2022/04/27 03:33:38;;;;;;;9.40;4.63;;;8.90;84.30;;;;;;5056150;28;20075;-68
2022/04/27 03:36:06;;;;;;;9.48;3.80;;;8.90;84.00;;;;;;5062898;28;20068;-67
2022/04/27 03:38:33;;;;;;;7.10;3.30;;;8.90;83.60;;;;;;5048895;28;20144;-67
2022/04/27 03:41:00;;;;;;;8.73;3.72;;;8.90;83.60;;;;;;5050511;28;20049;-66
2022/04/27 03:43:28;;;;;;;9.60;3.58;;;8.80;83.60;;;;;;5068892;28;20053;-65
2022/04/27 03:45:56;;;;;;;7.90;3.45;;;8.90;83.60;;;;;;5077676;28;20355;-67
2022/04/27 03:48:23;;;;;;;7.75;3.75;;;8.80;83.40;;;;;;5056649;28;20155;-66
2022/04/27 03:50:51;;;;;;;7.03;3.72;;;8.80;83.40;;;;;;5051965;28;20051;-67
2022/04/27 03:53:18;;;;;;;7.43;3.72;;;8.80;83.40;;;;;;5072446;28;20040;-65
2022/04/27 03:55:46;;;;;;;8.98;4.18;;;8.70;83.50;;;;;;5058579;28;20116;-67
2022/04/27 03:58:13;;;;;;;8.45;4.35;;;8.70;83.50;;;;;;5073737;28;20036;-67
2022/04/27 04:00:40;;;;;;;8.40;4.07;;;8.70;83.60;;;;;;5051048;28;20072;-66
2022/04/27 04:03:18;;;;;;;7.22;3.80;;;8.70;83.50;;;;;;5051296;28;20050;-66
2022/04/27 04:05:46;;;;;;;9.27;4.32;;;8.70;83.60;;;;;;5046802;28;20048;-67
2022/04/27 04:08:16;;;;;;;6.35;3.60;;;8.70;83.70;;;;;;5056085;28;20045;-65
2022/04/27 04:10:45;;;;;;;8.23;3.97;;;8.60;83.70;;;;;;5039399;28;20048;-67
2022/04/27 04:13:13;;;;;;;7.55;3.65;;;8.60;83.70;;;;;;5058661;28;20059;-67
2022/04/27 04:15:43;;;;;;;7.22;3.85;;;8.70;83.70;;;;;;5061958;28;20089;-67
2022/04/27 04:18:33;;;;;;;10.40;3.75;;;8.60;83.90;;;;;;5043778;28;20108;-65
2022/04/27 04:21:23;;;;;;;8.33;4.10;;;8.60;84.00;;;;;;5063198;28;20511;-66
2022/04/27 04:24:10;;;;;;;10.55;4.47;;;8.60;84.10;;;;;;5066168;28;20114;-67
2022/04/27 04:29:28;;;;;;;8.18;4.00;;;8.70;84.00;;;;;;5038999;28;20087;-67
2022/04/27 04:31:55;;;;;;;9.88;4.45;;;8.70;84.00;;;;;;5058264;28;20044;-67
2022/04/27 04:34:37;;;;;;;7.97;3.97;;;8.70;84.00;;;;;;5052183;28;20068;-67
2022/04/27 04:37:05;;;;;;;7.78;3.72;;;8.70;83.90;;;;;;5072144;28;20045;-67
2022/04/27 04:39:34;;;;;;;10.23;4.38;;;8.70;84.10;;;;;;5053662;28;20551;-65
2022/04/27 04:42:01;;;;;;;8.48;4.15;;;8.70;84.20;;;;;;5049060;28;20828;-67
2022/04/27 04:44:28;;;;;;;10.50;4.88;;;8.70;84.20;;;;;;5043204;28;20417;-67
2022/04/27 04:47:12;;;;;;;9.73;4.05;;;8.70;84.10;;;;;;5046124;28;20862;-67
2022/04/27 04:50:15;;;;;;;10.90;4.45;;;8.70;84.20;;;;;;5010538;28;20511;-66
2022/04/27 04:52:48;;;;;;;10.60;4.90;;;8.80;84.20;;;;;;5061555;28;20431;-67
2022/04/27 04:55:36;;;;;;;10.20;5.00;;;8.80;84.20;;;;;;5058539;28;20143;-66
2022/04/27 04:58:18;;;;;;;9.50;4.97;;;8.80;84.30;;;;;;5050731;28;20040;-67
2022/04/27 05:01:23;;;;;;;11.15;5.43;;;8.80;84.40;;;;;;5049308;28;20516;-65
2022/04/27 05:03:56;;;;;;;9.98;5.15;;;8.80;84.50;;;;;;5050905;28;20059;-65
2022/04/27 05:06:34;;;;;;;10.82;5.85;;;8.90;84.50;;;;;;5067542;28;20379;-66
2022/04/27 05:09:18;;;;;;;11.40;5.13;;;8.90;84.50;;;;;;5051450;28;20056;-67
2022/04/27 05:12:04;;;;;;;9.98;5.10;;;8.90;84.20;;;;;;5065683;28;20060;-67
2022/04/27 05:14:52;;;;;;;9.43;4.22;;;9.00;84.20;;;;;;5045337;28;20456;-67
2022/04/27 05:17:37;;;;;;;12.23;5.25;;;9.00;84.30;;;;;;5076819;28;20072;-66
2022/04/27 05:20:22;;;;;;;10.80;5.82;;;9.00;84.30;;;;;;5068893;28;20129;-67
2022/04/27 05:23:08;;;;;;;12.50;6.05;;;9.00;84.30;;;;;;5065705;28;20425;-71
2022/04/27 05:25:50;;;;;;;11.40;5.28;;;8.90;84.30;;;;;;5065560;28;20055;-71
2022/04/27 05:31:55;;;;;;;12.35;5.55;;;9.00;84.30;;;;;;5074467;28;20539;-70
2022/04/27 05:34:33;;;;;;;10.75;5.53;;;9.10;84.30;;;;;;5044713;28;20049;-70
2022/04/27 05:37:09;;;;;;;11.63;5.82;;;9.10;84.40;;;;;;5047405;28;20174;-70
2022/04/27 05:40:01;;;;;;;16.02;5.90;;;9.10;84.40;;;;;;5065781;28;20044;-71
2022/04/27 05:42:40;;;;;;;11.00;5.95;;;9.10;84.40;;;;;;5036560;28;20049;-70
2022/04/27 05:45:26;;;;;;;12.05;5.18;;;9.10;84.50;;;;;;5052189;28;20045;-71
2022/04/27 05:48:19;;;;;;;12.52;6.35;;;9.20;84.30;;;;;;5007138;28;20144;-71
2022/04/27 05:51:04;;;;;;;14.32;6.80;;;9.20;84.40;;;;;;5037802;28;20052;-72
2022/04/27 05:53:43;;;;;;;12.00;4.88;;;9.30;84.30;;;;;;5037930;28;20044;-70
2022/04/27 05:56:30;;;;;;;10.35;5.70;;;9.40;84.10;;;;;;5043996;28;20044;-70
2022/04/27 05:59:11;;;;;;;12.88;6.82;;;9.40;84.10;;;;;;5027740;28;20068;-71
2022/04/27 06:01:58;;;;;;;10.88;5.78;;;9.40;84.20;;;;;;5037765;28;20537;-70
2022/04/27 06:04:26;;;;;;;9.73;5.32;;;9.40;84.30;;;;;;5029339;28;20102;-69
2022/04/27 06:06:54;;;;;;;13.50;6.10;;;9.40;84.40;;;;;;5041120;28;20451;-70
2022/04/27 06:09:22;;;;;;;14.77;6.90;;;9.40;84.40;;;;;;5032473;28;20048;-70
2022/04/27 06:12:15;;;;;;;12.25;5.43;;;9.40;84.50;;;;;;5024993;28;20056;-70
2022/04/27 06:14:43;;;;;;;13.60;6.53;;;9.50;84.70;;;;;;5043097;28;20045;-71
2022/04/27 06:17:18;;;;;;;11.45;6.43;;;9.60;84.40;;;;;;5025378;28;20064;-71
2022/04/27 06:19:47;;;;;;;9.77;5.45;;;9.70;84.10;;;;;;5031082;28;20072;-71
2022/04/27 06:22:15;;;;;;;11.57;6.35;;;9.70;84.00;;;;;;5048008;28;20045;-71
2022/04/27 06:24:42;;;;;;;14.32;6.45;;;9.80;84.10;;;;;;5044335;28;20972;-71
2022/04/27 06:27:29;;;;;;;11.63;6.13;;;9.80;84.10;;;;;;5054638;28;20052;-71
2022/04/27 06:29:57;;;;;;;12.43;6.75;;;9.90;84.20;;;;;;5044371;28;20492;-71
2022/04/27 06:32:26;;;;;;;12.77;6.72;;;10.00;84.20;;;;;;5036130;28;20549;-71
2022/04/27 06:34:59;;;;;;;12.60;6.47;;;10.10;84.30;;;;;;5026529;28;20041;-70
2022/04/27 06:37:28;;;;;;;13.43;7.25;;;10.20;84.00;;;;;;5024461;28;20127;-71
2022/04/27 06:39:55;;;;;;;15.05;6.82;;;10.30;84.20;;;;;;5044081;28;20497;-71
2022/04/27 06:42:23;;;;;;;11.88;6.57;;;10.40;84.10;;;;;;5042707;28;20114;-71
2022/04/27 06:45:19;;;;;;;10.93;6.18;;;10.50;84.00;;;;;;5079016;28;20048;-71
2022/04/27 06:48:06;;;;;;;12.07;6.65;;;10.60;83.90;;;;;;5082508;28;20515;-71
2022/04/27 06:50:52;;;;;;;11.90;6.45;;;10.70;83.80;;;;;;5078429;28;20051;-71
2022/04/27 06:53:38;;;;;;;11.10;6.75;;;10.90;83.50;;;;;;5079586;28;20519;-72
2022/04/27 06:56:24;;;;;;;14.25;7.60;;;11.10;83.10;;;;;;5079479;28;20055;-71
2022/04/27 06:59:09;;;;;;;11.55;6.13;;;11.30;82.80;;;;;;5069235;28;20383;-70
2022/04/27 07:01:39;;;;;;;13.40;6.10;;;11.40;82.50;;;;;;5045422;28;20111;-70
2022/04/27 07:04:11;;;;;;;14.40;7.40;;;11.60;82.30;;;;;;5072445;28;20474;-70
2022/04/27 07:06:38;;;;;;;;;;;11.70;82.30;;;;;;5053437;28;21082;-69
2022/04/27 07:09:06;;;;;;;11.07;5.78;;;11.80;82.30;;;;;;5072535;28;19920;-71
2022/04/27 07:11:33;;;;;;;12.52;7.05;;;11.90;81.80;;;;;;5069037;28;20231;-71
2022/04/27 07:14:00;;;;;;;11.50;6.15;;;12.10;81.70;;;;;;5072994;28;20481;-71
2022/04/27 07:16:26;;;;;;;12.13;6.80;;;12.20;81.50;;;;;;5069869;28;20043;-71
2022/04/27 07:18:53;;;;;;;11.15;6.68;;;12.30;81.60;;;;;;5077255;28;20044;-71
2022/04/27 07:21:22;;;;;;;13.07;6.78;;;12.40;80.50;;;;;;5080701;28;20135;-70
2022/04/27 07:23:49;;;;;;;13.57;6.00;;;12.50;80.30;;;;;;5077315;28;20706;-70
2022/04/27 07:26:16;;;;;;;14.27;6.35;;;12.60;80.60;;;;;;5075483;28;20037;-70
2022/04/27 07:28:43;;;;;;;10.95;6.20;;;12.70;79.70;;;;;;5073507;28;20126;-71
2022/04/27 07:31:10;;;;;;;15.15;7.47;;;12.80;79.50;;;;;;5073267;28;20049;-72
2022/04/27 07:33:37;;;;;;;12.07;6.47;;;12.80;79.40;;;;;;5070638;28;20040;-71
2022/04/27 07:36:06;;;;;;;10.40;6.57;;;12.90;78.40;;;;;;5067130;28;20057;-69
2022/04/27 07:38:35;;;;;;;10.75;6.22;;;12.90;78.70;;;;;;5069947;28;20531;-70
2022/04/27 07:41:03;;;;;;;11.15;6.22;;;12.90;77.90;;;;;;5071276;28;20055;-70
2022/04/27 07:43:29;;;;;;;11.95;7.00;;;13.00;78.10;;;;;;5073119;28;20063;-71
2022/04/27 07:45:57;;;;;;;9.18;6.13;;;13.00;78.30;;;;;;5072062;28;20040;-71
2022/04/27 07:48:24;;;;;;;10.55;6.15;;;13.10;77.80;;;;;;5069119;28;20071;-70
2022/04/27 07:50:50;;;;;;;11.15;6.45;;;13.10;77.40;;;;;;5072519;28;20040;-70
2022/04/27 07:53:18;;;;;;;12.73;6.82;;;13.20;77.80;;;;;;5070968;28;20119;-70
2022/04/27 07:55:46;;;;;;;13.43;6.88;;;13.20;77.70;;;;;;5070465;28;20044;-70
2022/04/27 07:58:13;;;;;;;10.88;6.25;;;13.40;77.40;;;;;;5071899;28;20382;-70
2022/04/27 08:00:40;;;;;;;10.48;6.10;;;13.40;77.70;;;;;;5069623;28;20036;-70
2022/04/27 08:03:07;;;;;;;9.57;6.57;;;13.50;77.50;;;;;;5072875;28;20056;-70
2022/04/27 08:05:34;;;;;;;11.32;6.75;;;13.60;77.50;;;;;;5070942;28;20163;-71
2022/04/27 08:08:01;;;;;;;12.40;7.47;;;13.70;76.90;;;;;;5070404;28;20331;-71
2022/04/27 08:10:28;;;;;;;10.52;6.38;;;13.80;76.20;;;;;;5073767;28;20048;-70
2022/04/27 08:12:57;;;;;;;11.27;5.63;;;13.90;76.00;;;;;;5079713;28;20072;-70
2022/04/27 08:15:25;;;;;;;11.00;6.47;;;13.90;76.40;;;;;;5081678;28;20047;-71
2022/04/27 08:17:58;;;;;;;10.27;6.32;;;14.10;75.80;;;;;;5080156;28;20051;-70
2022/04/27 08:23:13;;;;;;;11.02;6.47;;;14.20;75.40;;;;;;5079494;28;20036;-71
2022/04/27 08:25:40;;;;;;;12.52;6.25;;;14.20;75.40;;;;;;5078581;28;20055;-70
2022/04/27 08:28:10;;;;;;;11.05;6.00;;;14.30;75.60;;;;;;5079177;28;20040;-71
2022/04/27 08:30:38;;;;;;;10.68;5.85;;;14.40;75.10;;;;;;5080535;28;20497;-69
2022/04/27 08:33:07;;;;;;;10.77;6.20;;;14.50;74.30;;;;;;5078486;28;20405;-70
2022/04/27 08:35:34;;;;;;;8.93;5.40;;;14.50;74.20;;;;;;5079237;28;20549;-70
2022/04/27 08:38:02;;;;;;;11.25;6.13;;;14.60;74.80;;;;;;5082103;28;20097;-71
2022/04/27 08:40:29;;;;;;;9.60;5.28;;;14.70;73.90;;;;;;5078440;28;20051;-70
2022/04/27 08:43:01;;;;;;;10.55;5.35;;;14.70;73.90;;;;;;5057810;28;20053;-71
2022/04/27 08:45:30;;;;;;;9.90;5.60;;;14.80;74.00;;;;;;5049949;28;20542;-72
2022/04/27 08:47:59;;;;;;;8.55;4.38;;;14.90;73.70;;;;;;5049273;28;20108;-69
2022/04/27 08:50:27;;;;;;;9.63;5.22;;;15.00;73.60;;;;;;5050089;28;20041;-69
2022/04/27 08:52:55;;;;;;;8.93;5.75;;;15.00;73.20;;;;;;5053334;28;20048;-69
2022/04/27 08:55:27;;;;;;;10.27;5.43;;;15.10;73.00;;;;;;5048100;28;20041;-71
2022/04/27 08:57:55;;;;;;;9.40;5.43;;;15.10;73.30;;;;;;5049320;28;20053;-64
2022/04/27 09:00:23;;;;;;;8.80;5.15;;;15.20;74.10;;;;;;5047680;28;20398;-63
2022/04/27 09:02:56;;;;;;;10.75;6.18;;;15.30;73.20;;;;;;5046730;28;20084;-65
2022/04/27 09:05:24;;;;;;;9.35;5.53;;;15.40;73.20;;;;;;5046381;28;20110;-64
2022/04/27 09:07:56;;;;;;;8.68;4.60;;;15.50;73.20;;;;;;5046533;28;20032;-65
2022/04/27 09:10:25;;;;;;;8.10;4.70;;;15.50;72.60;;;;;;5054909;28;20043;-66
2022/04/27 09:12:53;;;;;;;8.75;4.78;;;15.60;72.50;;;;;;5054301;28;20037;-63
2022/04/27 09:15:22;;;;;;;7.30;4.68;;;15.70;72.40;;;;;;5045326;28;20489;-65
2022/04/27 09:23:22;;;;;;;7.63;4.70;;;15.90;71.20;;;;;;5053117;28;20048;-65
2022/04/27 09:25:50;;;;;;;8.05;4.43;;;16.00;70.90;;;;;;5052042;28;20033;-62
2022/04/27 09:28:17;;;;;;;10.95;5.40;;;16.00;70.70;;;;;;5053983;28;20135;-66
2022/04/27 09:30:47;;;;;;;9.57;4.30;;;16.10;70.20;;;;;;5057545;28;20045;-65
2022/04/27 09:33:30;;;;;;;8.38;3.92;;;16.10;69.90;;;;;;5057837;28;20045;-67
2022/04/27 09:35:57;;;;;;;6.70;3.83;;;16.20;70.30;;;;;;5053904;28;20411;-67
2022/04/27 09:38:26;;;;;;;5.32;3.00;;;16.20;70.50;;;;;;5048592;28;20045;-67
2022/04/27 09:40:56;;;;;;;6.28;3.58;;;16.30;70.20;;;;;;5047404;28;20044;-65
2022/04/27 09:43:42;;;;;;;6.35;3.22;;;16.40;69.60;;;;;;5071101;28;20047;-67
2022/04/27 09:46:17;;;;;;;6.68;3.72;;;16.40;70.00;;;;;;5042293;28;20057;-65
2022/04/27 09:48:46;;;;;;;5.95;3.20;;;16.50;69.30;;;;;;5065184;28;20039;-66
2022/04/27 09:51:14;;;;;;;6.63;3.50;;;16.60;68.80;;;;;;5066349;28;20093;-68
2022/04/27 09:53:43;;;;;;;6.03;3.40;;;16.60;68.60;;;;;;5064406;28;20094;-68
2022/04/27 09:56:12;;;;;;;9.38;3.70;;;16.70;68.60;;;;;;5074133;28;20044;-69
2022/04/27 09:58:44;;;;;;;5.13;2.97;;;16.70;69.00;;;;;;5072048;28;20040;-66
2022/04/27 10:01:14;;;;;;;5.45;3.00;;;16.80;68.60;;;;;;5076371;28;20051;-67
2022/04/27 10:03:42;;;;;;;5.85;3.40;;;16.80;68.70;;;;;;5075461;28;20051;-67
2022/04/27 10:06:11;;;;;;;7.18;3.70;;;16.90;68.00;;;;;;5072060;28;20049;-67
2022/04/27 10:08:40;;;;;;;6.13;3.17;;;16.90;68.40;;;;;;5073209;28;20078;-67
2022/04/27 10:11:09;;;;;;;6.00;2.70;;;17.00;67.30;;;;;;5068327;28;20068;-67
2022/04/27 10:13:38;;;;;;;3.75;2.45;;;17.10;66.90;;;;;;5054938;28;20151;-67
2022/04/27 10:16:06;;;;;;;6.45;3.42;;;17.10;66.80;;;;;;5074003;28;20036;-67
2022/04/27 10:18:33;;;;;;;4.57;2.83;;;17.10;66.30;;;;;;5059435;28;20040;-66
2022/04/27 10:21:01;;;;;;;6.55;4.05;;;17.20;66.50;;;;;;5044242;28;20060;-67
2022/04/27 10:23:32;;;;;;;7.50;2.92;;;17.30;66.40;;;;;;5064829;28;20041;-67
2022/04/27 10:26:09;;;;;;;5.13;2.50;;;17.30;65.80;;;;;;5065015;28;20478;-67
2022/04/27 10:28:38;;;;;;;5.00;2.53;;;17.40;65.60;;;;;;5067241;28;20449;-66
2022/04/27 10:31:07;;;;;;;4.88;2.40;;;17.40;65.30;;;;;;5066821;28;20044;-66
2022/04/27 10:33:49;;;;;;;5.87;2.90;;;17.50;64.80;;;;;;5065964;28;20051;-65
2022/04/27 10:36:41;;;;;;;5.70;2.10;;;17.50;65.60;;;;;;5054081;28;20049;-67
2022/04/27 10:39:20;;;;;;;4.30;2.30;;;17.60;65.40;;;;;;5070381;28;20044;-66
2022/04/27 10:42:20;;;;;;;5.55;2.65;;;17.60;64.50;;;;;;5077689;28;20056;-67
2022/04/27 10:45:07;;;;;;;4.40;1.70;;;17.60;64.10;;;;;;5075815;28;20059;-68
2022/04/27 10:47:45;;;;;;;4.55;2.13;;;17.70;63.50;;;;;;5074135;28;20389;-67
2022/04/27 10:50:33;;;;;;;5.78;2.47;;;17.70;62.90;;;;;;5084119;28;20146;-66
2022/04/27 10:53:17;;;;;;;5.78;2.47;;;17.70;62.90;;;;;;5056033;28;20045;-68
2022/04/27 10:55:50;;;;;;;3.85;1.92;;;17.80;62.80;;;;;;5071732;28;20119;-68
2022/04/27 10:58:19;;;;;;;5.40;2.00;;;17.80;61.80;;;;;;5060422;28;21032;-67
2022/04/27 11:01:25;;;;;;;5.15;1.80;;;17.80;62.60;;;;;;5076505;28;20040;-67
2022/04/27 11:03:57;;;;;;;4.90;2.53;;;17.90;61.70;;;;;;5087966;28;20040;-66
2022/04/27 11:06:25;;;;;;;4.10;2.30;;;17.90;61.40;;;;;;5087472;28;20439;-66
2022/04/27 11:09:09;;;;;;;8.20;2.42;;;17.90;61.20;;;;;;5086784;28;20062;-68
2022/04/27 11:11:51;;;;;;;5.63;2.92;;;18.00;60.50;;;;;;5085488;28;20040;-67
2022/04/27 11:14:29;;;;;;;6.32;2.30;;;18.00;60.90;;;;;;5081614;28;20095;-69
2022/04/27 11:16:56;;;;;;;4.82;2.05;;;18.10;60.30;;;;;;5081396;28;20044;-67
2022/04/27 11:19:34;;;;;;;3.95;1.92;;;18.10;60.10;;;;;;5075148;28;20119;-65
2022/04/27 11:22:10;;;;;;;4.95;2.45;;;18.10;59.70;;;;;;5070476;28;20145;-68
2022/04/27 11:24:37;;;;;;;5.43;2.78;;;18.10;59.50;;;;;;5071679;28;20067;-68
2022/04/27 11:27:07;;;;;;;6.03;2.60;;;18.20;58.50;;;;;;5069832;28;20040;-67
2022/04/27 11:29:35;;;;;;;5.00;2.22;;;18.20;58.90;;;;;;5069961;28;20049;-66
2022/04/27 11:32:05;;;;;;;4.90;2.42;;;18.20;58.70;;;;;;5069131;28;20409;-68
2022/04/27 11:34:33;;;;;;;3.60;1.80;;;18.30;58.80;;;;;;5051920;28;20049;-68
2022/04/27 11:37:15;;;;;;;5.55;2.45;;;18.30;58.70;;;;;;5067787;28;20045;-67
2022/04/27 11:39:42;;;;;;;3.85;2.08;;;18.30;57.70;;;;;;5066318;28;20126;-67
2022/04/27 11:42:12;;;;;;;5.55;2.33;;;18.30;56.40;;;;;;5075589;28;20048;-67
2022/04/27 11:44:39;;;;;;;;;;;18.30;55.10;;;;;;5072572;28;20046;-67
2022/04/27 11:47:25;;;;;;;3.45;1.77;;;18.40;56.00;;;;;;5082348;28;19920;-66
2022/04/27 11:49:55;;;;;;;2.67;1.77;;;18.40;55.80;;;;;;5085596;28;20056;-67
2022/04/27 11:52:22;;;;;;;4.75;2.25;;;18.40;56.30;;;;;;5081043;28;20048;-68
2022/04/27 11:54:49;;;;;;;4.97;2.30;;;18.50;56.00;;;;;;5084088;28;20493;-67
2022/04/27 11:57:23;;;;;;;4.03;1.67;;;18.50;55.70;;;;;;5069570;28;20047;-67
2022/04/27 11:59:52;;;;;;;3.63;1.98;;;18.50;55.60;;;;;;5072863;28;20603;-68
2022/04/27 12:02:23;;;;;;;4.95;1.95;;;18.40;54.90;;;;;;5071367;28;20052;-66
2022/04/27 12:04:51;;;;;;;3.55;1.65;;;18.30;55.10;;;;;;5050836;28;22124;-67
2022/04/27 12:07:20;;;;;;;3.35;1.67;;;18.30;53.90;;;;;;5071310;28;20120;-67
2022/04/27 12:09:58;;;;;;;4.47;1.90;;;18.30;55.80;;;;;;5068098;28;20037;-67
2022/04/27 12:12:27;;;;;;;3.28;1.50;;;18.30;53.70;;;;;;5063717;28;20509;-67
2022/04/27 12:14:55;;;;;;;;;;;18.20;54.90;;;;;;5071487;28;20559;-67
2022/04/27 12:17:45;;;;;;;3.85;1.55;;;18.20;54.90;;;;;;5074264;28;19952;-68
2022/04/27 12:20:27;;;;;;;3.13;1.50;;;18.20;54.70;;;;;;5076694;28;20048;-67
2022/04/27 12:22:56;;;;;;;3.72;1.80;;;18.10;53.20;;;;;;5082070;28;20481;-67
2022/04/27 12:25:32;;;;;;;4.13;1.42;;;18.10;52.90;;;;;;5084911;28;20066;-67
2022/04/27 12:28:01;;;;;;;3.63;1.35;;;18.10;53.70;;;;;;5082330;28;20040;-67
2022/04/27 12:30:28;;;;;;;3.95;2.00;;;18.00;52.30;;;;;;5074966;28;20044;-66
2022/04/27 12:32:55;;;;;;;4.60;1.65;;;17.90;52.80;;;;;;5066965;28;20067;-68
2022/04/27 12:38:10;;;;;;;2.58;1.10;;;17.80;51.60;;;;;;5056738;28;20055;-67
2022/04/27 12:40:38;;;;;;;3.30;1.70;;;17.70;51.70;;;;;;5067427;28;20058;-66
2022/04/27 12:43:08;;;;;;;2.97;1.38;;;17.60;51.70;;;;;;5071014;28;20147;-68
2022/04/27 12:45:35;;;;;;;2.58;1.48;;;17.60;51.80;;;;;;5068577;28;20124;-67
2022/04/27 12:48:03;;;;;;;3.00;1.50;;;17.50;52.30;;;;;;5067555;28;20041;-67
2022/04/27 12:50:30;;;;;;;2.03;1.25;;;17.50;52.80;;;;;;5071254;28;20044;-68
2022/04/27 12:53:08;;;;;;;3.03;1.70;;;17.40;52.20;;;;;;5066870;28;20516;-67
2022/04/27 12:55:35;;;;;;;2.58;1.40;;;17.40;52.30;;;;;;5072292;28;20039;-68
2022/04/27 12:58:02;;;;;;;2.15;1.15;;;17.30;52.60;;;;;;5069028;28;20052;-67
2022/04/27 13:00:42;;;;;;;3.00;1.35;;;17.30;52.90;;;;;;5075372;28;20576;-67
2022/04/27 13:03:10;;;;;;;3.25;1.40;;;17.30;53.20;;;;;;5068887;28;20495;-67
2022/04/27 13:05:38;;;;;;;2.55;1.40;;;17.30;53.40;;;;;;5075438;28;20043;-67
2022/04/27 13:08:06;;;;;;;3.00;1.45;;;17.30;53.60;;;;;;5075898;28;20048;-67
2022/04/27 13:13:18;;;;;;;3.95;2.00;;;17.40;55.00;;;;;;5069702;28;20153;-67
2022/04/27 13:15:47;;;;;;;3.45;1.77;;;17.50;55.30;;;;;;5065406;28;20040;-68
2022/04/27 13:18:14;;;;;;;4.47;2.45;;;17.70;55.90;;;;;;5079594;28;20041;-67
2022/04/27 13:20:41;;;;;;;8.25;3.80;;;17.90;55.50;;;;;;5077181;28;20051;-67
2022/04/27 13:23:09;;;;;;;5.80;2.83;;;18.10;55.20;;;;;;5069151;28;20482;-69
2022/04/27 13:25:36;;;;;;;4.57;2.20;;;18.10;55.10;;;;;;5068462;28;20044;-68
2022/04/27 13:28:03;;;;;;;5.03;2.55;;;18.20;55.20;;;;;;5068896;28;20394;-66
2022/04/27 13:30:30;;;;;;;4.82;2.58;;;18.30;54.60;;;;;;5071611;28;20040;-67
2022/04/27 13:32:59;;;;;;;5.47;3.03;;;18.30;53.70;;;;;;5071896;28;20139;-69
2022/04/27 13:35:26;;;;;;;5.63;3.05;;;18.30;53.10;;;;;;5074462;28;20568;-69